createdAt,value
2023-04-15T00:00:29.014Z,92.76
2023-04-15T00:03:31.659Z,93.47
2023-04-15T00:06:34.350Z,93.50
2023-04-15T00:09:36.861Z,94.18
2023-04-15T00:12:39.530Z,93.83
2023-04-15T00:15:42.760Z,93.41
2023-04-15T00:18:45.925Z,94.11
2023-04-15T00:21:48.678Z,90.97
2023-04-15T00:24:51.388Z,89.20
2023-04-15T00:27:57.288Z,89.80
2023-04-15T00:30:59.752Z,89.99
2023-04-15T00:34:02.616Z,90.58
2023-04-15T00:37:05.052Z,90.25
2023-04-15T00:40:12.325Z,90.92
2023-04-15T00:43:15.005Z,90.41
2023-04-15T00:46:20.697Z,92.87
2023-04-15T00:49:24.110Z,93.38
2023-04-15T00:52:27.196Z,93.99
2023-04-15T00:55:29.617Z,92.71
2023-04-15T00:58:32.654Z,92.37
2023-04-15T01:01:38.567Z,93.26
2023-04-15T01:04:42.173Z,93.23
2023-04-15T01:07:44.593Z,93.35
2023-04-15T01:10:47.286Z,92.60
2023-04-15T01:13:54.241Z,91.65
2023-04-15T01:16:56.660Z,91.61
2023-04-15T01:19:59.108Z,91.42
2023-04-15T01:23:01.620Z,90.59
2023-04-15T01:26:05.104Z,91.33
2023-04-15T01:29:08.431Z,90.61
2023-04-15T01:32:11.172Z,91.17
2023-04-15T01:35:13.805Z,91.16
2023-04-15T01:38:16.360Z,91.03
2023-04-15T01:41:28.170Z,90.98
2023-04-15T01:44:30.734Z,90.64
2023-04-15T01:47:33.702Z,92.11
2023-04-15T01:50:38.140Z,92.47
2023-04-15T01:53:40.700Z,91.40
2023-04-15T01:56:44.353Z,90.65
2023-04-15T01:59:47.479Z,92.39
2023-04-15T02:02:51.347Z,91.15
2023-04-15T02:05:53.907Z,91.34
2023-04-15T02:08:56.827Z,90.74
2023-04-15T02:11:59.556Z,91.82
2023-04-15T02:15:02.137Z,90.85
2023-04-15T02:18:05.799Z,89.28
2023-04-15T02:21:08.281Z,89.97
2023-04-15T02:24:13.324Z,90.76
2023-04-15T02:27:18.377Z,91.16
2023-04-15T02:30:21.409Z,90.58
2023-04-15T02:33:23.993Z,90.51
2023-04-15T02:36:27.128Z,91.15
2023-04-15T02:39:29.501Z,92.29
2023-04-15T02:42:32.036Z,92.81
2023-04-15T02:45:36.633Z,92.35
2023-04-15T02:48:41.011Z,92.33
2023-04-15T02:51:49.488Z,92.94
2023-04-15T02:54:52.096Z,93.85
2023-04-15T02:57:54.562Z,93.48
2023-04-15T03:00:57.004Z,92.83
2023-04-15T03:03:59.581Z,93.83
2023-04-15T03:07:02.118Z,93.51
2023-04-15T03:10:05.009Z,93.07
2023-04-15T03:13:07.460Z,92.62
2023-04-15T03:16:10.608Z,93.28
2023-04-15T03:19:13.208Z,93.93
2023-04-15T03:22:17.933Z,93.91
2023-04-15T03:25:20.736Z,94.24
2023-04-15T03:28:23.332Z,93.70
2023-04-15T03:31:26.615Z,94.00
2023-04-15T03:34:29.129Z,93.93
2023-04-15T03:37:31.554Z,92.47
2023-04-15T03:40:34.226Z,92.68
2023-04-15T03:43:36.687Z,92.06
2023-04-15T03:46:39.123Z,91.71
2023-04-15T03:49:41.513Z,91.64
2023-04-15T03:52:44.938Z,91.51
2023-04-15T03:55:47.795Z,91.76
2023-04-15T03:58:50.261Z,92.00
2023-04-15T04:01:53.046Z,92.61
2023-04-15T04:04:55.474Z,91.95
2023-04-15T04:07:57.867Z,91.76
2023-04-15T04:11:00.279Z,92.27
2023-04-15T04:14:02.645Z,92.21
2023-04-15T04:17:05.354Z,93.16
2023-04-15T04:20:08.441Z,93.38
2023-04-15T04:23:11.609Z,93.34
2023-04-15T04:26:14.042Z,92.84
2023-04-15T04:29:16.394Z,93.23
2023-04-15T04:32:18.800Z,92.85
2023-04-15T04:35:21.947Z,93.08
2023-04-15T04:38:24.460Z,93.99
2023-04-15T04:41:27.307Z,93.38
2023-04-15T04:44:29.780Z,92.95
2023-04-15T04:47:32.159Z,93.46
2023-04-15T04:50:35.460Z,93.69
2023-04-15T04:53:37.856Z,93.26
2023-04-15T04:56:40.390Z,92.98
2023-04-15T04:59:42.847Z,92.77
2023-04-15T05:02:46.163Z,92.50
2023-04-15T05:05:49.418Z,91.73
2023-04-15T05:08:52.074Z,91.54
2023-04-15T05:11:54.511Z,91.48
2023-04-15T05:14:57.123Z,91.63
2023-04-15T05:17:59.544Z,90.48
2023-04-15T05:21:02.655Z,90.22
2023-04-15T05:24:05.539Z,88.96
2023-04-15T05:27:08.594Z,87.75
2023-04-15T05:30:13.393Z,87.89
2023-04-15T05:33:16.438Z,86.32
2023-04-15T05:36:18.869Z,85.33
2023-04-15T05:39:21.466Z,82.35
2023-04-15T05:42:24.028Z,80.44
2023-04-15T05:45:26.474Z,79.62
2023-04-15T05:48:28.966Z,81.04
2023-04-15T05:51:31.463Z,77.30
2023-04-15T05:54:33.929Z,78.53
2023-04-15T05:57:36.632Z,79.02
2023-04-15T06:00:39.411Z,81.18
2023-04-15T06:03:42.029Z,80.93
2023-04-15T06:06:44.814Z,80.89
2023-04-15T06:09:47.307Z,81.58
2023-04-15T06:12:49.769Z,82.65
2023-04-15T06:15:52.180Z,83.90
2023-04-15T06:18:54.721Z,83.29
2023-04-15T06:21:58.808Z,83.68
2023-04-15T06:25:01.272Z,82.08
2023-04-15T06:28:03.875Z,82.09
2023-04-15T06:31:06.439Z,82.69
2023-04-15T06:34:08.766Z,83.68
2023-04-15T06:37:15.881Z,82.00
2023-04-15T06:40:18.489Z,83.47
2023-04-15T06:43:20.961Z,84.14
2023-04-15T06:46:23.559Z,84.07
2023-04-15T06:49:26.752Z,84.20
2023-04-15T06:52:29.178Z,85.25
2023-04-15T06:55:32.345Z,84.96
2023-04-15T06:58:34.710Z,85.73
2023-04-15T07:01:37.163Z,86.69
2023-04-15T07:04:40.394Z,86.49
2023-04-15T07:07:42.955Z,85.72
2023-04-15T07:10:47.227Z,86.57
2023-04-15T07:13:49.634Z,86.87
2023-04-15T07:16:52.170Z,84.60
2023-04-15T07:19:54.658Z,84.10
2023-04-15T07:22:57.549Z,83.36
2023-04-15T07:26:00.159Z,82.79
2023-04-15T07:29:02.758Z,84.72
2023-04-15T07:32:05.944Z,83.14
2023-04-15T07:35:09.761Z,82.69
2023-04-15T07:38:14.810Z,82.57
2023-04-15T07:41:17.585Z,81.93
2023-04-15T07:44:20.035Z,80.08
2023-04-15T07:47:22.419Z,81.88
2023-04-15T07:50:24.818Z,83.54
2023-04-15T07:53:27.301Z,83.53
2023-04-15T07:56:29.824Z,85.88
2023-04-15T07:59:33.541Z,86.58
2023-04-15T08:02:38.196Z,85.09
2023-04-15T08:05:42.614Z,84.54
2023-04-15T08:08:45.117Z,84.19
2023-04-15T08:11:49.224Z,82.90
2023-04-15T08:14:52.260Z,82.53
2023-04-15T08:17:54.761Z,81.22
2023-04-15T08:20:57.166Z,83.06
2023-04-15T08:24:00.276Z,78.97
2023-04-15T08:27:04.760Z,80.23
2023-04-15T08:30:08.600Z,81.36
2023-04-15T08:33:10.996Z,78.04
2023-04-15T08:36:14.161Z,68.01
2023-04-15T08:39:16.725Z,65.23
2023-04-15T08:42:27.781Z,68.11
2023-04-15T08:45:30.743Z,70.20
2023-04-15T08:48:35.169Z,68.35
2023-04-15T08:51:38.774Z,64.83
2023-04-15T08:54:42.164Z,57.58
2023-04-15T08:57:44.948Z,47.59
2023-04-15T09:00:48.761Z,55.10
2023-04-15T09:03:52.903Z,53.79
2023-04-15T09:06:55.313Z,53.88
2023-04-15T09:09:57.677Z,58.77
2023-04-15T09:13:00.772Z,55.14
2023-04-15T09:16:04.302Z,54.05
2023-04-15T09:19:22.632Z,57.92
2023-04-15T09:22:32.223Z,62.84
2023-04-15T09:25:35.156Z,66.40
2023-04-15T09:28:43.575Z,66.75
2023-04-15T09:31:46.480Z,68.70
2023-04-15T09:34:49.141Z,60.07
2023-04-15T09:37:52.605Z,59.76
2023-04-15T09:40:55.295Z,60.46
2023-04-15T09:43:57.753Z,64.02
2023-04-15T09:47:00.810Z,64.44
2023-04-15T09:50:03.584Z,64.27
2023-04-15T09:53:06.310Z,69.12
2023-04-15T09:56:10.569Z,69.56
2023-04-15T09:59:12.950Z,73.27
2023-04-15T10:02:16.531Z,70.10
2023-04-15T10:05:18.976Z,75.57
2023-04-15T10:08:27.928Z,78.76
2023-04-15T10:11:31.895Z,81.22
2023-04-15T10:14:38.827Z,81.94
2023-04-15T10:17:44.329Z,84.63
2023-04-15T10:20:48.433Z,73.65
2023-04-15T10:23:51.524Z,67.03
2023-04-15T10:26:54.469Z,57.68
2023-04-15T10:29:57.490Z,55.14
2023-04-15T10:33:02.027Z,55.57
2023-04-15T10:36:05.042Z,53.09
2023-04-15T10:39:43.140Z,48.81
2023-04-15T10:42:45.781Z,47.86
2023-04-15T10:45:48.743Z,44.71
2023-04-15T10:48:53.580Z,43.19
2023-04-15T10:51:59.819Z,47.71
2023-04-15T10:55:11.263Z,49.39
2023-04-15T10:58:15.107Z,52.41
2023-04-15T11:01:20.939Z,52.16
2023-04-15T11:04:51.772Z,50.62
2023-04-15T11:07:56.063Z,54.13
2023-04-15T11:10:58.573Z,51.44
2023-04-15T11:14:02.861Z,47.25
2023-04-15T11:17:05.538Z,44.39
2023-04-15T11:20:09.115Z,44.01
2023-04-15T11:23:15.325Z,48.61
2023-04-15T11:26:18.168Z,50.99
2023-04-15T11:29:21.310Z,55.70
2023-04-15T11:32:23.779Z,49.18
2023-04-15T11:35:26.720Z,48.95
2023-04-15T11:38:29.340Z,51.45
2023-04-15T11:41:31.821Z,48.45
2023-04-15T11:44:34.444Z,49.00
2023-04-15T11:47:38.120Z,49.13
2023-04-15T11:50:41.228Z,48.95
2023-04-15T11:53:44.684Z,47.52
2023-04-15T11:56:51.990Z,50.72
2023-04-15T11:59:55.468Z,53.22
2023-04-15T12:03:30.094Z,58.02
2023-04-15T12:06:38.907Z,57.67
2023-04-15T12:09:42.534Z,59.01
2023-04-15T12:12:49.829Z,58.93
2023-04-15T12:15:53.269Z,57.90
2023-04-15T12:18:58.950Z,57.18
2023-04-15T12:22:04.198Z,56.10
2023-04-15T12:25:06.905Z,53.93
2023-04-15T12:28:12.891Z,54.29
2023-04-15T12:31:15.605Z,57.70
2023-04-15T12:34:19.985Z,52.41
2023-04-15T12:37:22.501Z,51.07
2023-04-15T12:40:24.835Z,47.65
2023-04-15T12:43:27.704Z,45.79
2023-04-15T12:46:30.178Z,45.32
2023-04-15T12:49:33.554Z,46.92
2023-04-15T12:52:36.003Z,47.02
2023-04-15T12:55:38.531Z,46.83
2023-04-15T12:58:41.148Z,48.50
2023-04-15T13:01:43.681Z,52.21
2023-04-15T13:04:46.101Z,49.20
2023-04-15T13:07:48.466Z,45.93
2023-04-15T13:10:51.097Z,50.38
2023-04-15T13:13:53.496Z,49.86
2023-04-15T13:16:56.300Z,52.92
2023-04-15T13:19:59.486Z,55.40
2023-04-15T13:23:01.957Z,57.79
2023-04-15T13:26:04.896Z,58.89
2023-04-15T13:29:07.392Z,65.40
2023-04-15T13:32:10.023Z,68.45
2023-04-15T13:35:12.512Z,71.19
2023-04-15T13:38:14.877Z,77.25
2023-04-15T13:41:17.285Z,80.98
2023-04-15T13:44:21.920Z,83.65
2023-04-15T13:47:24.727Z,84.76
2023-04-15T13:50:28.193Z,82.89
2023-04-15T13:53:38.089Z,85.31
2023-04-15T13:56:41.876Z,82.68
2023-04-15T13:59:44.522Z,81.15
2023-04-15T14:02:47.139Z,82.66
2023-04-15T14:05:55.827Z,79.60
2023-04-15T14:08:58.293Z,79.63
2023-04-15T14:12:01.440Z,77.85
2023-04-15T14:15:04.220Z,74.01
2023-04-15T14:18:06.986Z,73.91
2023-04-15T14:21:09.353Z,77.17
2023-04-15T14:24:12.013Z,72.26
2023-04-15T14:27:14.495Z,76.82
2023-04-15T14:30:17.493Z,71.37
2023-04-15T14:33:19.916Z,70.61
2023-04-15T14:36:22.886Z,72.06
2023-04-15T14:39:25.333Z,73.59
2023-04-15T14:42:28.145Z,75.90
2023-04-15T14:45:30.687Z,77.46
2023-04-15T14:48:33.308Z,79.52
2023-04-15T14:51:35.856Z,84.20
2023-04-15T14:54:38.459Z,87.53
2023-04-15T14:57:42.137Z,87.78
2023-04-15T15:00:44.816Z,89.12
2023-04-15T15:03:48.482Z,94.33
2023-04-15T15:06:50.999Z,95.45
2023-04-15T15:09:54.769Z,91.36
2023-04-15T15:12:57.405Z,93.34
2023-04-15T15:15:59.943Z,90.05
2023-04-15T15:19:04.047Z,89.12
2023-04-15T15:22:06.815Z,89.42
2023-04-15T15:25:09.487Z,86.12
2023-04-15T15:28:12.057Z,87.09
2023-04-15T15:31:14.719Z,86.78
2023-04-15T15:34:17.486Z,86.54
2023-04-15T15:37:19.834Z,88.26
2023-04-15T15:40:22.421Z,87.17
2023-04-15T15:43:24.898Z,85.43
2023-04-15T15:46:28.337Z,85.78
2023-04-15T15:49:31.617Z,86.47
2023-04-15T15:52:34.017Z,87.05
2023-04-15T15:55:36.512Z,85.72
2023-04-15T15:58:38.920Z,85.21
2023-04-15T16:01:42.889Z,87.14
2023-04-15T16:04:45.551Z,86.34
2023-04-15T16:07:48.118Z,87.32
2023-04-15T16:10:50.474Z,86.36
2023-04-15T16:13:52.896Z,86.76
2023-04-15T16:16:55.348Z,88.06
2023-04-15T16:20:00.514Z,89.00
2023-04-15T16:23:11.805Z,89.57
2023-04-15T16:26:14.256Z,90.00
2023-04-15T16:29:16.847Z,90.25
2023-04-15T16:32:19.487Z,91.00
2023-04-15T16:35:22.181Z,90.92
2023-04-15T16:38:24.633Z,90.89
2023-04-15T16:41:28.515Z,91.16
2023-04-15T16:44:31.086Z,91.19
2023-04-15T16:47:33.698Z,90.58
2023-04-15T16:50:37.192Z,91.45
2023-04-15T16:53:39.598Z,90.71
2023-04-15T16:56:41.970Z,91.14
2023-04-15T16:59:44.471Z,89.53
2023-04-15T17:02:48.090Z,90.21
2023-04-15T17:05:50.714Z,90.56
2023-04-15T17:08:53.941Z,92.49
2023-04-15T17:11:57.659Z,89.86
2023-04-15T17:15:00.126Z,90.91
2023-04-15T17:18:02.574Z,90.45
2023-04-15T17:21:05.597Z,92.35
2023-04-15T17:24:08.269Z,91.51
2023-04-15T17:27:11.454Z,92.89
2023-04-15T17:30:14.084Z,91.12
2023-04-15T17:33:56.390Z,89.42
2023-04-15T17:36:39.449Z,91.44
2023-04-15T17:39:42.157Z,91.83
2023-04-15T17:42:46.259Z,92.90
2023-04-15T17:45:48.782Z,93.18
2023-04-15T17:48:51.689Z,93.64
2023-04-15T17:51:55.485Z,94.24
2023-04-15T17:54:58.151Z,93.20
2023-04-15T17:58:00.865Z,92.57
2023-04-15T18:01:03.555Z,93.60
2023-04-15T18:04:06.583Z,93.33
2023-04-15T18:07:09.578Z,92.26
2023-04-15T18:10:12.136Z,92.33
2023-04-15T18:13:14.828Z,93.17
2023-04-15T18:16:17.402Z,92.41
2023-04-15T18:19:22.553Z,92.73
2023-04-15T18:22:25.469Z,93.21
2023-04-15T18:25:29.289Z,93.69
2023-04-15T18:28:31.983Z,92.23
2023-04-15T18:31:34.767Z,91.96
2023-04-15T18:34:37.759Z,90.82
2023-04-15T18:37:40.545Z,91.45
2023-04-15T18:40:43.231Z,91.65
2023-04-15T18:43:45.932Z,92.46
2023-04-15T18:46:48.969Z,93.30
2023-04-15T18:49:52.202Z,92.82
2023-04-15T18:52:54.932Z,92.37
2023-04-15T18:55:58.110Z,93.18
2023-04-15T18:59:09.400Z,93.20
2023-04-15T19:02:24.051Z,92.68
2023-04-15T19:05:27.319Z,92.24
2023-04-15T19:08:31.111Z,92.34
2023-04-15T19:11:33.776Z,92.65
2023-04-15T19:14:36.436Z,92.70
2023-04-15T19:17:39.071Z,91.16
2023-04-15T19:20:41.864Z,91.71
2023-04-15T19:23:44.625Z,91.77
2023-04-15T19:26:48.766Z,91.97
2023-04-15T19:29:51.535Z,92.47
2023-04-15T19:32:54.312Z,91.83
2023-04-15T19:36:01.648Z,92.68
2023-04-15T19:39:04.575Z,93.12
2023-04-15T19:42:07.667Z,92.90
2023-04-15T19:45:10.900Z,93.64
2023-04-15T19:48:13.618Z,93.95
2023-04-15T19:51:16.441Z,94.70
2023-04-15T19:54:18.838Z,93.36
2023-04-15T19:57:21.695Z,92.90
2023-04-15T20:00:24.124Z,92.12
2023-04-15T20:03:26.956Z,92.56
2023-04-15T20:06:30.291Z,92.83
2023-04-15T20:09:32.852Z,92.66
2023-04-15T20:12:50.993Z,92.19
2023-04-15T20:15:55.160Z,92.50
2023-04-15T20:19:04.146Z,92.57
2023-04-15T20:22:07.073Z,93.17
2023-04-15T20:25:09.794Z,93.22
2023-04-15T20:28:12.683Z,93.24
2023-04-15T20:31:15.431Z,92.90
2023-04-15T20:34:18.016Z,92.40
2023-04-15T20:37:20.563Z,91.92
2023-04-15T20:40:23.274Z,92.19
2023-04-15T20:43:26.154Z,92.11
2023-04-15T20:46:29.893Z,91.87
2023-04-15T20:49:36.377Z,92.44
2023-04-15T20:52:39.394Z,92.52
2023-04-15T20:55:43.595Z,91.74
2023-04-15T20:58:46.228Z,92.73
2023-04-15T21:01:48.922Z,92.17
2023-04-15T21:04:51.434Z,93.03
2023-04-15T21:07:54.263Z,92.63
2023-04-15T21:10:57.506Z,93.85
2023-04-15T21:13:59.882Z,93.52
2023-04-15T21:17:09.973Z,93.39
2023-04-15T21:20:13.443Z,93.74
2023-04-15T21:23:15.982Z,92.98
2023-04-15T21:26:18.434Z,93.27
2023-04-15T21:29:21.054Z,93.55
2023-04-15T21:32:23.530Z,93.83
2023-04-15T21:35:25.881Z,93.45
2023-04-15T21:38:28.282Z,94.49
2023-04-15T21:41:31.210Z,93.69
2023-04-15T21:44:33.560Z,91.88
2023-04-15T21:48:05.831Z,92.08
2023-04-15T21:50:59.600Z,92.89
2023-04-15T21:54:02.254Z,93.46
2023-04-15T21:57:04.659Z,93.46
2023-04-15T22:00:08.583Z,93.79
2023-04-15T22:03:11.094Z,93.60
2023-04-15T22:06:13.871Z,94.85
2023-04-15T22:09:16.672Z,95.35
2023-04-15T22:12:19.368Z,94.61
2023-04-15T22:15:21.790Z,94.24
2023-04-15T22:18:24.267Z,93.43
2023-04-15T22:21:26.869Z,93.32
2023-04-15T22:24:38.191Z,92.95
2023-04-15T22:27:42.851Z,92.76
2023-04-15T22:30:45.210Z,92.26
2023-04-15T22:33:47.564Z,92.49
2023-04-15T22:36:51.596Z,92.49
2023-04-15T22:39:53.973Z,92.02
2023-04-15T22:42:56.702Z,92.22
2023-04-15T22:46:00.744Z,93.52
2023-04-15T22:49:03.395Z,92.53
2023-04-15T22:52:06.126Z,92.45
2023-04-15T22:55:09.157Z,92.72
2023-04-15T22:58:11.539Z,92.84
2023-04-15T23:01:17.549Z,92.57
2023-04-15T23:04:26.634Z,93.92
2023-04-15T23:07:30.408Z,94.01
2023-04-15T23:10:32.823Z,93.44
2023-04-15T23:13:36.119Z,94.35
2023-04-15T23:16:38.881Z,93.60
2023-04-15T23:19:41.409Z,93.86
2023-04-15T23:22:43.902Z,93.49
2023-04-15T23:25:46.535Z,93.94
2023-04-15T23:28:49.018Z,94.41
2023-04-15T23:31:51.476Z,94.28
2023-04-15T23:34:54.381Z,94.60
2023-04-15T23:37:56.872Z,93.01
2023-04-15T23:40:59.323Z,93.50
2023-04-15T23:44:01.793Z,94.13
2023-04-15T23:47:05.003Z,93.50
2023-04-15T23:50:08.357Z,93.58
2023-04-15T23:53:10.789Z,93.40
2023-04-15T23:56:13.241Z,92.85
2023-04-15T23:59:15.806Z,93.34
